Terminal Aerodrome Forecast
Issued by NWS

Home | Current Version | Previous Version | Text Only | Print | Product List | Glossary Off
Versions: 1 2 3 4 5 6 7 8 9 10 11 12 13 14 15 16 17 18 19 20 21

000
FTUS41 KCLE 211500 AAA
TAFFDY
TAF AMD
KFDY 211513Z 2115/2212 24008KT P6SM -SHRA BKN040 OVC100
      TEMPO 2115/2118 3SM -TSRA BR BKN025CB OVC080
     FM211800 23006KT P6SM -SHRA BKN040 BKN120
     FM220300 23005KT 5SM BR VCTS BKN035CB OVC080
      TEMPO 2208/2212 1SM +TSRA BR BKN015CB OVC025=

USA.gov is the U.S. government's official web portal to all federal, state and local government web resources and services.